Detall de PIREP

Printer-friendly versionPDF version

[2014/06/12 09:50:00]
Flight IATA:CT3108
Pilot Number:042
Company ICAO:CAT
Aircraft Type:F100/A
PAX:48
Aircraft Registration:PFJ
Departing Airport: LIEA
Destination Airport: LEZG
Alternate Airport:LEMD
Online: VATSIM
Route:GINOX UM601 BCN UN725 LOBAR
Flight Level:F310
No Slew and time accel
No pause
Crash detect
Detect pilot in Cockpit between each 30 and 45 minutes
09:50 Zero fuel Weight: 81826 Lbs, Fuel Weight: 22654 Lbs
09:50 VATSIM:LIEA 120920Z 19005KT 150V220 CAVOK 29/18 Q1020
09:50 VATSIM:LEZG 120930Z 32006KT 280V350 CAVOK 24/15 Q1023
09:51 Parking Brakes off
09:56 Take-off
09:56 Take off Weight: 103983 Lbs
09:56 Wind: 189º @ 005 Knots Heading: 203º
09:56 POS N40º 37´ 39´´ E008º 17´ 18´´
09:56 Gear Up: 168 Knots
09:56 Flaps:2 at 168 Knots
09:56 Flaps:1 at 170 Knots
09:56 Flaps:0 at 172 Knots
10:11 Wind:225º@012 Knots Heading: 271º Ground Speed: 347 KnotsAltitude 24160 ft
10:17 TOC
10:17 Fuel Weight: 19826 Lb
10:26 Wind:007º@007 Knots Heading: 279º Ground Speed: 460 Knots Altitude 31194 ft
10:41 Wind:179º@015 Knots Heading: 274º Ground Speed: 461 Knots Altitude 31210 ft
10:55 TOD
10:55 Fuel Weight: 16538 Lb
10:56 Wind:298º@004 Knots Heading: 286º Ground Speed: 457 Knots Altitude 30797 ft
11:01 Flaps:1 at 261 Knots
11:01 Flaps:2 at 233 Knots
11:07 Gear Down: 184 Knots
11:07 Flaps:4 at 184 Knots
11:09 TouchDown:Rate -482 ft/min Speed: 112 Knots
11:10 Flaps:3 at 50 Knots
11:10 VATSIM:LEZG 121100Z 32007KT 290V010 CAVOK 27/15 Q1022
11:10 Land
11:10 Wind:296º@007 Knots
11:10 Heading: 300º
11:10 Flight Duration: 01:14
11:10 Landing Weight: 97704 Lbs
11:10 POS N41º 39´ 37´´ W001º 01´ 10´´
11:11 Parking brakes on
11:11 Block to Block Duration: 01:20
11:11 Final Fuel: 15789 Lbls
11:11 Spent Fuel: 6865 Lbls
11:11 Flight Length: 392 NM
11:11 TOD Land Length: 68 NM

Exportar CSV

Powered by Drupal - Modified by Danger4k